createdAt,value
2023-01-21T00:01:20.088Z,3.10
2023-01-21T00:03:48.364Z,3.10
2023-01-21T00:06:17.228Z,3.10
2023-01-21T00:08:45.522Z,3.00
2023-01-21T00:11:16.459Z,3.00
2023-01-21T00:13:46.042Z,2.90
2023-01-21T00:16:14.831Z,2.90
2023-01-21T00:18:43.429Z,2.90
2023-01-21T00:21:11.812Z,2.90
2023-01-21T00:23:40.161Z,2.80
2023-01-21T00:26:11.315Z,2.80
2023-01-21T00:28:43.710Z,2.90
2023-01-21T00:31:13.095Z,2.90
2023-01-21T00:33:41.385Z,2.90
2023-01-21T00:36:14.429Z,2.90
2023-01-21T00:38:42.523Z,2.90
2023-01-21T00:41:13.748Z,2.80
2023-01-21T00:43:43.711Z,2.80
2023-01-21T00:46:12.304Z,2.80
2023-01-21T00:48:40.732Z,2.90
2023-01-21T00:51:13.593Z,2.90
2023-01-21T00:53:43.033Z,3.00
2023-01-21T00:56:12.879Z,3.00
2023-01-21T00:58:43.623Z,3.00
2023-01-21T01:01:14.713Z,2.90
2023-01-21T01:03:43.365Z,2.90
2023-01-21T01:06:13.590Z,2.90
2023-01-21T01:08:41.696Z,2.90
2023-01-21T01:11:09.955Z,2.90
2023-01-21T01:13:39.079Z,2.90
2023-01-21T01:16:09.690Z,2.90
2023-01-21T01:18:38.817Z,2.90
2023-01-21T01:21:07.872Z,2.90
2023-01-21T01:23:36.054Z,3.00
2023-01-21T01:26:07.678Z,2.90
2023-01-21T01:28:36.247Z,3.00
2023-01-21T01:31:07.228Z,3.00
2023-01-21T01:33:36.972Z,3.00
2023-01-21T01:36:07.015Z,3.00
2023-01-21T01:38:35.982Z,3.00
2023-01-21T01:41:04.660Z,3.00
2023-01-21T01:43:49.904Z,3.00
2023-01-21T01:46:18.088Z,3.10
2023-01-21T01:48:50.700Z,3.00
2023-01-21T01:51:22.709Z,3.00
2023-01-21T01:53:52.715Z,3.00
2023-01-21T01:56:21.340Z,3.00
2023-01-21T01:58:50.688Z,3.00
2023-01-21T02:01:19.231Z,3.00
2023-01-21T02:03:59.300Z,3.10
2023-01-21T02:06:28.597Z,3.10
2023-01-21T02:08:57.944Z,3.10
2023-01-21T02:11:26.225Z,3.10
2023-01-21T02:13:58.017Z,3.20
2023-01-21T02:16:56.559Z,3.20
2023-01-21T02:19:44.201Z,3.20
2023-01-21T02:22:20.215Z,3.30
2023-01-21T02:25:20.493Z,3.30
2023-01-21T02:27:54.759Z,3.20
2023-01-21T02:30:44.827Z,3.20
2023-01-21T02:33:34.237Z,3.30
2023-01-21T02:36:18.643Z,3.40
2023-01-21T02:38:54.149Z,3.40
2023-01-21T02:41:34.893Z,3.40
2023-01-21T02:44:11.920Z,3.40
2023-01-21T02:46:44.200Z,3.30
2023-01-21T02:49:20.824Z,3.30
2023-01-21T02:51:49.618Z,3.40
2023-01-21T02:54:33.274Z,3.50
2023-01-21T02:57:01.383Z,3.50
2023-01-21T02:59:29.631Z,3.50
2023-01-21T03:02:03.975Z,3.50
2023-01-21T03:04:52.544Z,3.50
2023-01-21T03:07:26.072Z,3.50
2023-01-21T03:09:58.650Z,3.40
2023-01-21T03:12:35.064Z,3.40
2023-01-21T03:15:26.117Z,3.40
2023-01-21T03:17:59.917Z,3.40
2023-01-21T03:20:34.224Z,3.50
2023-01-21T03:23:05.133Z,3.50
2023-01-21T03:25:36.182Z,3.60
2023-01-21T03:28:08.912Z,3.60
2023-01-21T03:30:41.619Z,3.60
2023-01-21T03:33:11.668Z,3.60
2023-01-21T03:35:44.358Z,3.60
2023-01-21T03:38:17.625Z,3.60
2023-01-21T03:40:50.071Z,3.50
2023-01-21T03:43:18.164Z,3.40
2023-01-21T03:45:51.593Z,3.40
2023-01-21T03:48:23.123Z,3.40
2023-01-21T03:50:57.656Z,3.40
2023-01-21T03:53:25.881Z,3.40
2023-01-21T03:55:53.994Z,3.40
2023-01-21T03:58:22.131Z,3.40
2023-01-21T04:00:50.507Z,3.30
2023-01-21T04:03:18.723Z,3.30
2023-01-21T04:05:46.843Z,3.30
2023-01-21T04:08:16.311Z,3.30
2023-01-21T04:10:44.553Z,3.30
2023-01-21T04:13:12.670Z,3.30
2023-01-21T04:15:40.780Z,3.30
2023-01-21T04:18:08.881Z,3.30
2023-01-21T04:20:38.167Z,3.40
2023-01-21T04:23:06.294Z,3.30
2023-01-21T04:25:35.798Z,3.40
2023-01-21T04:28:03.927Z,3.40
2023-01-21T04:30:32.063Z,3.40
2023-01-21T04:33:00.185Z,3.40
2023-01-21T04:35:28.381Z,3.40
2023-01-21T04:37:56.916Z,3.30
2023-01-21T04:40:25.029Z,3.30
2023-01-21T04:42:54.539Z,3.30
2023-01-21T04:45:22.676Z,3.30
2023-01-21T04:47:50.733Z,3.20
2023-01-21T04:50:20.408Z,3.20
2023-01-21T04:52:48.487Z,3.10
2023-01-21T04:55:16.697Z,3.10
2023-01-21T04:57:44.817Z,3.00
2023-01-21T05:00:15.716Z,3.00
2023-01-21T05:02:43.970Z,3.00
2023-01-21T05:05:12.212Z,3.00
2023-01-21T05:07:40.370Z,3.00
2023-01-21T05:10:09.151Z,3.00
2023-01-21T05:12:37.201Z,3.00
2023-01-21T05:15:05.830Z,3.00
2023-01-21T05:17:35.439Z,3.00
2023-01-21T05:20:03.599Z,3.00
2023-01-21T05:22:31.737Z,3.00
2023-01-21T05:25:00.714Z,3.10
2023-01-21T05:27:28.927Z,3.20
2023-01-21T05:29:57.277Z,3.20
2023-01-21T05:32:25.708Z,3.20
2023-01-21T05:34:55.262Z,3.30
2023-01-21T05:37:23.397Z,3.30
2023-01-21T05:39:51.514Z,3.30
2023-01-21T05:42:19.638Z,3.40
2023-01-21T05:44:47.761Z,3.40
2023-01-21T05:47:15.877Z,3.30
2023-01-21T05:49:43.933Z,3.40
2023-01-21T05:52:13.443Z,3.30
2023-01-21T05:54:52.464Z,3.40
2023-01-21T05:57:28.271Z,3.30
2023-01-21T05:59:56.376Z,3.30
2023-01-21T06:02:25.986Z,3.30
2023-01-21T06:04:54.149Z,3.30
2023-01-21T06:07:23.667Z,3.40
2023-01-21T06:09:51.751Z,3.40
2023-01-21T06:12:19.871Z,3.40
2023-01-21T06:14:47.965Z,3.40
2023-01-21T06:17:16.100Z,3.30
2023-01-21T06:19:44.148Z,3.30
2023-01-21T06:22:15.865Z,3.30
2023-01-21T06:24:45.488Z,3.30
2023-01-21T06:27:13.938Z,3.30
2023-01-21T06:29:42.038Z,3.20
2023-01-21T06:32:10.189Z,3.20
2023-01-21T06:34:38.332Z,3.20
2023-01-21T06:37:06.527Z,3.10
2023-01-21T06:39:34.813Z,3.10
2023-01-21T06:42:04.392Z,3.10
2023-01-21T06:44:32.511Z,3.10
2023-01-21T06:47:01.516Z,3.10
2023-01-21T06:49:30.005Z,3.10
2023-01-21T06:51:58.083Z,3.00
2023-01-21T06:54:29.334Z,3.00
2023-01-21T06:56:58.741Z,3.00
2023-01-21T06:59:28.237Z,3.00
2023-01-21T07:01:59.072Z,3.00
2023-01-21T07:04:27.498Z,3.00
2023-01-21T07:06:55.804Z,3.00
2023-01-21T07:09:23.915Z,3.00
2023-01-21T07:11:52.040Z,3.10
2023-01-21T07:14:20.194Z,3.10
2023-01-21T07:16:49.716Z,3.10
2023-01-21T07:19:17.834Z,3.20
2023-01-21T07:21:45.971Z,3.10
2023-01-21T07:24:14.070Z,3.10
2023-01-21T07:26:43.246Z,3.10
2023-01-21T07:29:11.514Z,3.10
2023-01-21T07:31:39.713Z,3.00
2023-01-21T07:34:09.347Z,3.00
2023-01-21T07:36:37.459Z,3.00
2023-01-21T07:39:05.646Z,3.00
2023-01-21T07:41:33.838Z,3.00
2023-01-21T07:44:01.944Z,3.10
2023-01-21T07:46:30.086Z,3.10
2023-01-21T07:48:58.181Z,3.10
2023-01-21T07:51:27.723Z,3.10
2023-01-21T07:53:56.955Z,3.10
2023-01-21T07:56:26.943Z,3.10
2023-01-21T07:58:55.037Z,3.10
2023-01-21T08:01:27.074Z,3.10
2023-01-21T08:03:55.253Z,3.10
2023-01-21T08:06:23.580Z,3.10
2023-01-21T08:08:53.410Z,3.10
2023-01-21T08:11:21.580Z,3.10
2023-01-21T08:13:50.804Z,3.10
2023-01-21T08:16:18.931Z,3.20
2023-01-21T08:18:47.097Z,3.20
2023-01-21T08:21:15.241Z,3.20
2023-01-21T08:23:43.524Z,3.30
2023-01-21T08:26:13.279Z,3.40
2023-01-21T08:28:44.276Z,3.40
2023-01-21T08:31:14.072Z,3.40
2023-01-21T08:33:42.422Z,3.40
2023-01-21T08:36:10.995Z,3.40
2023-01-21T08:38:40.136Z,3.40
2023-01-21T08:41:08.271Z,3.40
2023-01-21T08:43:38.069Z,3.50
2023-01-21T08:46:06.811Z,3.50
2023-01-21T08:48:34.974Z,3.50
2023-01-21T08:51:03.119Z,3.50
2023-01-21T08:53:32.326Z,3.60
2023-01-21T08:56:01.645Z,3.70
2023-01-21T08:58:29.885Z,3.80
2023-01-21T09:00:59.836Z,3.90
2023-01-21T09:03:29.938Z,3.90
2023-01-21T09:06:01.746Z,4.00
2023-01-21T09:08:29.944Z,4.00
2023-01-21T09:11:02.235Z,4.00
2023-01-21T09:13:31.299Z,4.10
2023-01-21T09:16:01.205Z,4.10
2023-01-21T09:18:29.333Z,4.10
2023-01-21T09:21:01.933Z,4.10
2023-01-21T09:23:32.562Z,4.10
2023-01-21T09:26:04.354Z,4.10
2023-01-21T09:28:34.044Z,4.00
2023-01-21T09:31:05.866Z,4.00
2023-01-21T09:33:36.023Z,4.10
2023-01-21T09:36:07.714Z,4.20
2023-01-21T09:38:36.287Z,4.20
2023-01-21T09:41:16.286Z,4.20
2023-01-21T09:43:47.528Z,4.20
2023-01-21T09:46:25.324Z,4.20
2023-01-21T09:48:54.479Z,4.20
2023-01-21T09:51:29.812Z,4.30
2023-01-21T09:53:59.500Z,4.30
2023-01-21T09:56:34.978Z,4.40
2023-01-21T09:59:07.467Z,4.40
2023-01-21T10:01:40.637Z,4.50
2023-01-21T10:04:28.560Z,4.50
2023-01-21T10:07:00.891Z,4.60
2023-01-21T10:09:47.082Z,4.60
2023-01-21T10:12:29.178Z,4.60
2023-01-21T10:15:07.871Z,4.60
2023-01-21T10:17:51.976Z,4.50
2023-01-21T10:20:25.260Z,4.60
2023-01-21T10:22:58.562Z,4.60
2023-01-21T10:25:31.336Z,4.60
2023-01-21T10:28:04.253Z,4.70
2023-01-21T10:30:38.891Z,4.70
2023-01-21T10:33:17.138Z,4.70
2023-01-21T10:36:08.352Z,4.80
2023-01-21T10:38:42.044Z,4.80
2023-01-21T10:41:26.138Z,4.90
2023-01-21T10:44:00.158Z,5.00
2023-01-21T10:46:38.149Z,5.00
2023-01-21T10:49:23.132Z,5.00
2023-01-21T10:51:56.642Z,5.00
2023-01-21T10:54:33.131Z,5.00
2023-01-21T10:57:09.325Z,5.00
2023-01-21T10:59:38.611Z,5.00
2023-01-21T11:02:21.848Z,5.00
2023-01-21T11:04:52.395Z,5.00
2023-01-21T11:07:23.478Z,5.10
2023-01-21T11:09:52.807Z,5.10
2023-01-21T11:12:24.222Z,5.10
2023-01-21T11:14:56.858Z,5.10
2023-01-21T11:17:35.769Z,5.10
2023-01-21T11:20:08.060Z,5.20
2023-01-21T11:22:45.669Z,5.20
2023-01-21T11:25:27.029Z,5.30
2023-01-21T11:27:55.183Z,5.30
2023-01-21T11:30:49.061Z,5.30
2023-01-21T11:33:25.686Z,5.30
2023-01-21T11:35:56.565Z,5.30
2023-01-21T11:38:32.253Z,5.30
2023-01-21T11:41:15.494Z,5.30
2023-01-21T11:43:45.770Z,5.30
2023-01-21T11:46:25.085Z,5.40
2023-01-21T11:48:55.792Z,5.40
2023-01-21T11:51:25.348Z,5.50
2023-01-21T11:54:09.659Z,5.50
2023-01-21T11:56:38.107Z,5.60
2023-01-21T11:59:18.659Z,5.60
2023-01-21T12:01:53.032Z,5.70
2023-01-21T12:04:23.078Z,5.70
2023-01-21T12:06:58.089Z,5.80
2023-01-21T12:09:27.360Z,5.80
2023-01-21T12:12:19.234Z,5.80
2023-01-21T12:14:54.710Z,5.80
2023-01-21T12:17:40.007Z,5.80
2023-01-21T12:20:20.251Z,5.90
2023-01-21T12:23:14.479Z,5.80
2023-01-21T12:25:51.585Z,5.80
2023-01-21T12:28:31.166Z,5.80
2023-01-21T12:31:11.720Z,5.80
2023-01-21T12:33:52.156Z,5.80
2023-01-21T12:36:24.354Z,5.90
2023-01-21T12:38:58.944Z,6.00
2023-01-21T12:41:30.899Z,6.00
2023-01-21T12:44:18.757Z,6.00
2023-01-21T12:46:50.280Z,6.00
2023-01-21T12:49:23.899Z,6.00
2023-01-21T12:51:58.048Z,6.00
2023-01-21T12:54:38.808Z,6.00
2023-01-21T12:57:17.818Z,6.00
2023-01-21T12:59:51.004Z,5.90
2023-01-21T13:02:24.995Z,6.00
2023-01-21T13:04:57.847Z,6.00
2023-01-21T13:07:35.318Z,5.90
2023-01-21T13:10:15.257Z,5.90
2023-01-21T13:12:47.778Z,5.90
2023-01-21T13:15:19.857Z,6.00
2023-01-21T13:17:53.110Z,6.00
2023-01-21T13:20:22.957Z,6.00
2023-01-21T13:23:01.506Z,6.00
2023-01-21T13:25:39.028Z,5.90
2023-01-21T13:28:16.169Z,5.90
2023-01-21T13:30:51.340Z,5.90
2023-01-21T13:33:28.726Z,5.90
2023-01-21T13:36:07.582Z,5.90
2023-01-21T13:38:43.252Z,5.90
2023-01-21T13:41:28.851Z,6.00
2023-01-21T13:44:11.553Z,5.90
2023-01-21T13:46:49.880Z,5.90
2023-01-21T13:49:42.617Z,5.90
2023-01-21T13:52:16.301Z,5.90
2023-01-21T13:54:55.122Z,5.90
2023-01-21T13:57:39.531Z,5.90
2023-01-21T14:00:13.288Z,5.90
2023-01-21T14:02:49.689Z,5.90
2023-01-21T14:05:24.453Z,6.00
2023-01-21T14:07:57.105Z,5.90
2023-01-21T14:10:31.635Z,5.80
2023-01-21T14:13:24.692Z,5.80
2023-01-21T14:16:02.726Z,5.80
2023-01-21T14:18:48.190Z,5.80
2023-01-21T14:21:42.254Z,5.80
2023-01-21T14:24:28.102Z,5.80
2023-01-21T14:27:07.647Z,5.70
2023-01-21T14:29:45.157Z,5.70
2023-01-21T14:32:17.251Z,5.70
2023-01-21T14:34:53.222Z,5.60
2023-01-21T14:37:30.136Z,5.60
2023-01-21T14:40:10.489Z,5.60
2023-01-21T14:42:44.628Z,5.50
2023-01-21T14:45:15.540Z,5.50
2023-01-21T14:47:49.600Z,5.50
2023-01-21T14:50:53.423Z,5.50
2023-01-21T14:53:25.200Z,5.50
2023-01-21T14:56:16.131Z,5.50
2023-01-21T14:58:47.733Z,5.50
2023-01-21T15:01:38.761Z,5.50
2023-01-21T15:04:18.479Z,5.50
2023-01-21T15:06:46.870Z,5.50
2023-01-21T15:09:22.482Z,5.50
2023-01-21T15:11:54.564Z,5.50
2023-01-21T15:14:25.946Z,5.40
2023-01-21T15:16:55.558Z,5.40
2023-01-21T15:19:30.383Z,5.40
2023-01-21T15:22:18.498Z,5.40
2023-01-21T15:25:20.282Z,5.40
2023-01-21T15:28:40.482Z,5.40
2023-01-21T15:31:12.127Z,5.30
2023-01-21T15:33:46.192Z,5.20
2023-01-21T15:36:26.510Z,5.20
2023-01-21T15:39:00.777Z,5.10
2023-01-21T15:41:41.614Z,5.00
2023-01-21T15:44:27.355Z,5.00
2023-01-21T15:47:00.692Z,5.00
2023-01-21T15:49:42.246Z,4.90
2023-01-21T15:52:31.273Z,4.90
2023-01-21T15:55:16.394Z,4.80
2023-01-21T15:57:53.419Z,4.70
2023-01-21T16:00:32.474Z,4.60
2023-01-21T16:03:11.578Z,4.60
2023-01-21T16:05:53.354Z,4.60
2023-01-21T16:08:36.005Z,4.50
2023-01-21T16:11:17.301Z,4.60
2023-01-21T16:13:54.849Z,4.60
2023-01-21T16:16:35.094Z,4.50
2023-01-21T16:19:06.786Z,4.60
2023-01-21T16:21:40.138Z,4.60
2023-01-21T16:24:11.943Z,4.60
2023-01-21T16:26:40.110Z,4.50
2023-01-21T16:29:13.266Z,4.50
2023-01-21T16:31:50.125Z,4.50
2023-01-21T16:34:25.444Z,4.40
2023-01-21T16:36:54.944Z,4.40
2023-01-21T16:39:24.023Z,4.40
2023-01-21T16:42:02.856Z,4.30
2023-01-21T16:44:32.879Z,4.40
2023-01-21T16:47:01.168Z,4.30
2023-01-21T16:49:29.380Z,4.30
2023-01-21T16:52:01.042Z,4.30
2023-01-21T16:54:30.752Z,4.30
2023-01-21T16:57:01.498Z,4.40
2023-01-21T16:59:32.137Z,4.30
2023-01-21T17:02:01.182Z,4.40
2023-01-21T17:04:30.846Z,4.40
2023-01-21T17:07:00.547Z,4.30
2023-01-21T17:09:32.004Z,4.40
2023-01-21T17:12:04.844Z,4.30
2023-01-21T17:14:35.389Z,4.30
2023-01-21T17:17:06.756Z,4.40
2023-01-21T17:19:37.744Z,4.40
2023-01-21T17:22:15.635Z,4.40
2023-01-21T17:24:56.734Z,4.40
2023-01-21T17:27:26.460Z,4.30
2023-01-21T17:29:54.713Z,4.30
2023-01-21T17:32:27.934Z,4.30
2023-01-21T17:35:12.526Z,4.30
2023-01-21T17:37:46.144Z,4.40
2023-01-21T17:40:28.804Z,4.30
2023-01-21T17:42:58.379Z,4.30
2023-01-21T17:45:36.135Z,4.20
2023-01-21T17:48:09.738Z,4.20
2023-01-21T17:50:45.509Z,4.20
2023-01-21T17:53:22.350Z,4.10
2023-01-21T17:55:59.174Z,4.10
2023-01-21T17:58:45.625Z,4.10
2023-01-21T18:01:15.112Z,4.10
2023-01-21T18:03:43.325Z,4.10
2023-01-21T18:06:18.427Z,4.10
2023-01-21T18:08:48.093Z,4.10
2023-01-21T18:11:17.736Z,4.20
2023-01-21T18:13:45.868Z,4.20
2023-01-21T18:16:14.297Z,4.20
2023-01-21T18:18:42.481Z,4.20
2023-01-21T18:21:19.195Z,4.20
2023-01-21T18:23:49.423Z,4.20
2023-01-21T18:26:29.663Z,4.20
2023-01-21T18:28:57.776Z,4.30
2023-01-21T18:31:26.131Z,4.30
2023-01-21T18:33:54.402Z,4.30
2023-01-21T18:36:22.544Z,4.40
2023-01-21T18:38:52.041Z,4.40
2023-01-21T18:41:20.159Z,4.40
2023-01-21T18:43:48.273Z,4.30
2023-01-21T18:46:17.218Z,4.30
2023-01-21T18:48:45.374Z,4.30
2023-01-21T18:51:14.699Z,4.30
2023-01-21T18:53:42.902Z,4.30
2023-01-21T18:56:15.217Z,4.20
2023-01-21T18:58:43.632Z,4.20
2023-01-21T19:01:22.585Z,4.20
2023-01-21T19:03:53.825Z,4.20
2023-01-21T19:06:22.765Z,4.20
2023-01-21T19:08:50.901Z,4.20
2023-01-21T19:11:20.497Z,4.20
2023-01-21T19:13:48.637Z,4.20
2023-01-21T19:16:18.647Z,4.20
2023-01-21T19:18:47.204Z,4.20
2023-01-21T19:21:15.306Z,4.20
2023-01-21T19:23:43.432Z,4.20
2023-01-21T19:26:14.829Z,4.20
2023-01-21T19:28:44.365Z,4.20
2023-01-21T19:31:12.566Z,4.20
2023-01-21T19:33:42.926Z,4.20
2023-01-21T19:36:16.357Z,4.10
2023-01-21T19:38:47.370Z,4.20
2023-01-21T19:41:15.438Z,4.10
2023-01-21T19:43:44.907Z,4.20
2023-01-21T19:46:13.403Z,4.20
2023-01-21T19:48:41.833Z,4.20
2023-01-21T19:51:10.239Z,4.20
2023-01-21T19:53:38.385Z,4.10
2023-01-21T19:56:07.123Z,4.20
2023-01-21T19:58:35.823Z,4.20
2023-01-21T20:01:05.658Z,4.20
2023-01-21T20:03:34.329Z,4.20
2023-01-21T20:06:03.558Z,4.20
2023-01-21T20:08:32.575Z,4.20
2023-01-21T20:11:00.681Z,4.20
2023-01-21T20:13:32.193Z,4.20
2023-01-21T20:16:03.753Z,4.20
2023-01-21T20:18:33.766Z,4.20
2023-01-21T20:21:02.052Z,4.20
2023-01-21T20:23:32.734Z,4.30
2023-01-21T20:26:01.264Z,4.30
2023-01-21T20:28:38.644Z,4.30
2023-01-21T20:31:08.255Z,4.40
2023-01-21T20:33:38.055Z,4.40
2023-01-21T20:36:08.407Z,4.40
2023-01-21T20:38:38.542Z,4.30
2023-01-21T20:41:07.918Z,4.40
2023-01-21T20:43:36.013Z,4.30
2023-01-21T20:46:06.562Z,4.40
2023-01-21T20:48:39.784Z,4.40
2023-01-21T20:51:08.149Z,4.40
2023-01-21T20:53:36.562Z,4.40
2023-01-21T20:56:17.774Z,4.40
2023-01-21T20:58:47.858Z,4.40
2023-01-21T21:01:17.403Z,4.40
2023-01-21T21:03:47.470Z,4.40
2023-01-21T21:06:17.006Z,4.40
2023-01-21T21:08:45.347Z,4.40
2023-01-21T21:11:15.726Z,4.40
2023-01-21T21:13:43.846Z,4.50
2023-01-21T21:16:19.537Z,4.50
2023-01-21T21:18:49.530Z,4.50
2023-01-21T21:21:18.543Z,4.50
2023-01-21T21:23:47.646Z,4.50
2023-01-21T21:26:22.326Z,4.50
2023-01-21T21:28:50.820Z,4.50
2023-01-21T21:31:19.185Z,4.40
2023-01-21T21:33:48.881Z,4.40
2023-01-21T21:36:18.252Z,4.40
2023-01-21T21:38:46.948Z,4.40
2023-01-21T21:41:34.772Z,4.50
2023-01-21T21:44:03.679Z,4.50
2023-01-21T21:46:49.151Z,4.50
2023-01-21T21:49:18.730Z,4.50
2023-01-21T21:51:46.835Z,4.50
2023-01-21T21:54:16.643Z,4.60
2023-01-21T21:56:44.917Z,4.50
2023-01-21T21:59:13.373Z,4.50
2023-01-21T22:01:43.005Z,4.50
2023-01-21T22:04:11.570Z,4.60
2023-01-21T22:06:41.317Z,4.60
2023-01-21T22:09:09.532Z,4.60
2023-01-21T22:11:37.778Z,4.50
2023-01-21T22:14:05.911Z,4.50
2023-01-21T22:16:34.854Z,4.60
2023-01-21T22:19:03.055Z,4.60
2023-01-21T22:21:33.226Z,4.60
2023-01-21T22:24:03.121Z,4.50
2023-01-21T22:26:32.375Z,4.50
2023-01-21T22:29:00.477Z,4.50
2023-01-21T22:31:31.296Z,4.40
2023-01-21T22:34:00.754Z,4.40
2023-01-21T22:36:30.739Z,4.40
2023-01-21T22:38:59.151Z,4.40
2023-01-21T22:41:28.984Z,4.40
2023-01-21T22:43:57.436Z,4.50
2023-01-21T22:46:27.301Z,4.50
2023-01-21T22:48:55.592Z,4.50
2023-01-21T22:51:24.428Z,4.50
2023-01-21T22:53:53.981Z,4.50
2023-01-21T22:56:39.840Z,4.50
2023-01-21T22:59:13.879Z,4.50
2023-01-21T23:01:42.664Z,4.50
2023-01-21T23:04:11.653Z,4.50
2023-01-21T23:06:39.852Z,4.50
2023-01-21T23:09:11.066Z,4.50
2023-01-21T23:11:41.588Z,4.50
2023-01-21T23:14:10.600Z,4.50
2023-01-21T23:16:40.838Z,4.50
2023-01-21T23:19:08.934Z,4.50
2023-01-21T23:21:38.396Z,4.60
2023-01-21T23:24:07.182Z,4.50
2023-01-21T23:26:35.306Z,4.50
2023-01-21T23:29:03.432Z,4.60
2023-01-21T23:31:31.641Z,4.60
2023-01-21T23:34:01.348Z,4.50
2023-01-21T23:36:29.449Z,4.60
2023-01-21T23:38:57.523Z,4.60
2023-01-21T23:41:25.688Z,4.60
2023-01-21T23:43:55.175Z,4.50
2023-01-21T23:46:23.323Z,4.50
2023-01-21T23:48:51.494Z,4.50
2023-01-21T23:51:21.096Z,4.50
2023-01-21T23:53:49.893Z,4.50
2023-01-21T23:56:21.204Z,4.50
2023-01-21T23:58:49.329Z,4.50
